Station info - map view · info · telemetry · weather · raw · status · beacons · messages · bulletins · browse · moving · my account
Callsign, ship name or locator: Clear       
It is possible to search using wildcards (*?) after a prefix. Example: OH*
APRS station JO4DLN-7 - show graphs
Map loading...
Mic-E message: In service
Location: 34°25.58' N 132°44.19' E - locator PM64IK82JH - show map - static map
11.4 miles East bearing 69° from Kaita, Hiroshima, Japan [?]
11.9 miles Northwest bearing 301° from Takehara, Hiroshima, Japan
15.9 miles East bearing 82° from Hiroshima-shi, Hiroshima, Japan
70.1 miles West bearing 257° from Okayama-shi, Okayama, Japan
Last position: 2020-03-28 18:07:49 EDT (2d 21h1m ago)
2020-03-29 07:07:49 JST local time at Kaita, Japan [?]
Altitude: 728 ft
Course: 267°
Speed: 0 MPH
Device: Yaesu: FT2D (ht)
Last path: JO4DLN-7>S4RUU8 via JE4YKP-2*,qAS,JR4KDC-10 (good)
Positions stored: 50188
Packet rate: 177 seconds between packets on average during 8689 seconds.
Other SSIDs: JO4DLN-10 JO4DLN-9 JO4DLN-A
Stations near current position of JO4DLN-7 - show more
callsign distance last heard - EDT      callsign distance last heard - EDT
JF4JZZ-90.4 miles 168°2020-03-31 05:50:19 JA/HS-1462.1 miles 8°2020-03-07 21:16:40
JA/HS-1642.7 miles 89°2020-03-07 21:10:50 JA/HS-1303.6 miles 336°2020-03-07 21:19:58
JA/HS-1564.6 miles 142°2020-03-28 18:45:33 JA/HS-1677.2 miles 282°2020-03-07 21:26:48
JA/HS-1358.1 miles 285°2020-03-07 21:30:17 JA/HS-1668.2 miles 73°2020-03-07 20:47:27
JO4CPI-98.2 miles 268°2020-03-31 06:22:45 JA/HS-1028.2 miles 253°2020-03-11 18:55:45
JF4JZZ-78.3 miles 199°2020-03-28 01:53:02 JH4FQQ-78.4 miles 75°2020-03-07 02:05:39
RJOA10.4 miles 86°2020-03-31 15:02:46 JA/HS-11410.7 miles 269°2020-03-07 21:37:17
JA/HS-20411.1 miles 283°2020-03-30 06:38:57 JA/HS-28711.3 miles 97°2020-03-07 20:54:05
JA/HS-28511.5 miles 255°2020-03-11 18:53:02 NOROSAN11.9 miles 195°2020-03-31 15:02:20
JR4KDC-1012.1 miles 250°2020-03-31 15:06:10 JA/HS-17912.4 miles 277°2020-03-07 21:36:21
Stations which heard JO4DLN-7 directly on radio –
callsign pkts first heard - EDT last heard longest (tx => rx) longest at - EDT
JJ4KME-10 2 2020-03-28 17:16:20 2020-03-28 17:17:21 PM64NJ > PM64NJ 1.0 miles 256° 2020-03-28 17:16:20
JQ2GLP-2 2 2020-03-28 06:32:13 2020-03-28 07:06:19 PM84SQ > PM84UT 15.8 miles 51° 2020-03-28 07:06:19
JN3VDE-10 5 2020-03-28 12:44:40 2020-03-28 13:08:43 PM74RQ > PM74RT 7.6 miles 347° 2020-03-28 12:44:40
JP2VWJ-10 4 2020-03-28 10:06:16 2020-03-28 10:19:06 PM84GV > PM84GN 23.7 miles 178° 2020-03-28 10:06:16
JR2TER-10 4 2020-03-28 07:34:38 2020-03-28 07:50:07 PM84QT > PM84PT 1.5 miles 252° 2020-03-28 07:47:02
JE4YKP-2 6 2020-03-28 17:20:30 2020-03-28 18:07:49 PM64NJ > PM64DI 47.7 miles 269° 2020-03-28 17:20:30
JH3YBD-2 5 2020-03-28 11:03:17 2020-03-28 15:35:00 PM74WO > PM75HD 79.0 miles 298° 2020-03-28 11:03:17
JI3YVA-2 4 2020-03-28 13:44:16 2020-03-28 14:53:24 PM74NP > PM74IT 27.5 miles 291° 2020-03-28 13:44:16
JA2YEP-2 5 2020-03-28 07:31:20 2020-03-28 10:30:52 PM84QT > PM84GU 45.7 miles 274° 2020-03-28 07:31:20
JR2LGW-10 11 2020-03-28 06:35:13 2020-03-28 06:58:17 PM84TQ > PM84VQ 8.7 miles 77° 2020-03-28 06:58:17
JJ2YKR-10 1 2020-03-28 09:15:34 2020-03-28 09:15:34 PM85KC > PM85LE 7.6 miles 35° 2020-03-28 09:15:34
JQ1ZIF-2 20 2020-03-28 01:33:42 2020-03-28 04:06:43 PM95ME > QM05CK 67.2 miles 75° 2020-03-28 04:06:43
JA4YYF-2 1 2020-03-28 16:00:45 2020-03-28 16:00:45 PM64XP > PM64RX 35.5 miles 316° 2020-03-28 16:00:45
JF3DTW-10 7 2020-03-28 09:48:37 2020-03-28 10:28:50 PM84DU > PM84GT 13.9 miles 97° 2020-03-28 10:28:50
JE2ZUF-10 16 2020-03-28 04:03:26 2020-03-28 04:41:30 PM95MF > PM94LX 17.7 miles 196° 2020-03-28 04:03:26
JK2QUE-10 20 2020-03-28 07:12:07 2020-03-28 08:08:12 PM84PV > PM84QQ 16.1 miles 150° 2020-03-28 08:08:12
JE4YLR-10 9 2020-03-28 16:47:15 2020-03-28 17:05:11 PM64RM > PM64QL 3.7 miles 251° 2020-03-28 16:47:15
JO3HYR-10 1 2020-03-28 12:46:29 2020-03-28 12:46:29 PM74RQ > PM74RL 15.1 miles 180° 2020-03-28 12:46:29
JJ2YMT-2 7 2020-03-28 01:59:03 2020-03-28 02:21:33 PM95SH > PM95MB 33.2 miles 239° 2020-03-28 02:00:42
JR5YEB-10 1 2020-03-28 17:18:48 2020-03-28 17:18:48 PM64NJ > PM63MU 36.3 miles 190° 2020-03-28 17:18:48
JA3VQW-10 2 2020-03-28 12:14:15 2020-03-28 12:23:23 PM74TQ > PM74TT 7.0 miles 31° 2020-03-28 12:23:23
JR2LLI-10 1 2020-03-28 08:16:52 2020-03-28 08:16:52 PM84OW > PM84OW 0.8 miles 153° 2020-03-28 08:16:52
JL3ZDI-10 2 2020-03-28 12:15:16 2020-03-28 12:30:39 PM74TR > PM74SQ 6.6 miles 253° 2020-03-28 12:15:16
JO3HYM-2 1 2020-03-28 13:25:25 2020-03-28 13:25:25 PM74PR > PM74PI 26.1 miles 180° 2020-03-28 13:25:25
JL3YCZ-2 12 2020-03-28 13:34:59 2020-03-28 14:05:24 PM74OQ > PM74OC 42.0 miles 178° 2020-03-28 13:34:59
JE4YMQ-10 10 2020-03-28 15:45:01 2020-03-28 16:21:51 PM64TN > PM64WP 14.5 miles 61° 2020-03-28 16:21:51
JE4YIB-10 2 2020-03-28 16:09:02 2020-03-28 16:10:03 PM64VO > PM64VO 2.7 miles 241° 2020-03-28 16:09:02
JA2YXC-10 7 2020-03-28 09:33:38 2020-03-28 10:00:27 PM84GW > PM85HA 7.7 miles 38° 2020-03-28 10:00:27
JR4QII-10 1 2020-03-28 17:33:59 2020-03-28 17:33:59 PM64LJ > PM64MO 13.5 miles 12° 2020-03-28 17:33:59
JJ2YQW-2 17 2020-03-28 09:06:35 2020-03-28 10:27:02 PM84DU > PM85OL 67.2 miles 50° 2020-03-28 10:27:02
JR5YFF-10 45 2020-03-28 11:04:17 2020-03-28 17:01:10 PM74WO > PM74CA 104.8 miles 247° 2020-03-28 11:04:17
JM1ZED-13 4 2020-03-28 02:28:12 2020-03-28 02:35:36 PM95QH > PM95RI 3.4 miles 64° 2020-03-28 02:35:36
JQ1YZS-2 13 2020-03-28 02:22:48 2020-03-28 03:14:14 PM95OG > PM95QI 11.1 miles 61° 2020-03-28 03:14:14

Only position packets which were originated by the station are shown here. The range statistics show some extra long hops, because some digipeaters do not correctly add themselves to the digipeater path. Please check the raw packets.
About this site
This page shows real-time information collected from the Automatic Position Reporting System Internet network (APRS-IS). APRS is used by amateur (ham) radio operators to transmit real-time position information, weather data, telemetry and messages over the radio. A vehicle equipped with a GPS receiver, a VHF transmitter or HF transceiver and a small computer device called a tracker transmits it's location, speed and course in a small data packet, which is then received by a nearby iGate receiving site which forwards the packet on the Internet. Systems connected to the Internet can send information on the APRS-IS without a radio transmitter, or collect and display information transmitted anywhere in the world.
User guide · FAQ · Blog · Discussion group · Linking to aprs.fi · AIS sites · Service status · Database statistics · Advertising on aprs.fi · Technical details · API · Change log · Planned changes · Credits and thanks · Terms Of Service · iPhone/iPad APRS